DEHUE EDLP-ZZZZ
Flight info
| Callsign | DEHUE |
|---|---|
| Flight time | N/A |
| Altitude | 7000 |
| Route | HMM7Q HMM L620 EXOBA EXOBA3H |
| Aircraft | BE36/L-BDFGLORY/S |
Departure
| Time | 2026-05-05 17:58 |
|---|---|
| Airport | Paderborn Lippstadt Airport (EDLP) |
Arrival
| Time | N/A |
|---|---|
| Airport | ZZZZ |
| Time | Latitude | Longitude | Altitude | Speed | Heading |
|---|---|---|---|---|---|
| 2026-05-05 17:58 | 51.64125 | 8.59019 | 1933 ft | 150 kts | 283° |
| 2026-05-05 17:58 | 51.64377 | 8.57368 | 2106 ft | 156 kts | 287° |
| 2026-05-05 17:59 | 51.64749 | 8.55721 | 2267 ft | 158 kts | 291° |
| 2026-05-05 17:59 | 51.65154 | 8.54035 | 2347 ft | 163 kts | 291° |
| 2026-05-05 17:59 | 51.65548 | 8.52301 | 2420 ft | 166 kts | 289° |
| 2026-05-05 17:59 | 51.65908 | 8.50567 | 2599 ft | 162 kts | 288° |
| 2026-05-05 18:00 | 51.66245 | 8.48823 | 2664 ft | 167 kts | 287° |
| 2026-05-05 18:00 | 51.66604 | 8.47008 | 2662 ft | 171 kts | 288° |
| 2026-05-05 18:00 | 51.66844 | 8.45796 | 2692 ft | 170 kts | 288° |
| 2026-05-05 18:00 | 51.67314 | 8.43418 | 2867 ft | 165 kts | 288° |
| 2026-05-05 18:01 | 51.67654 | 8.41693 | 3115 ft | 160 kts | 288° |
| 2026-05-05 18:01 | 51.67919 | 8.39961 | 3357 ft | 160 kts | 269° |
| 2026-05-05 18:01 | 51.67566 | 8.38292 | 3600 ft | 159 kts | 243° |
| 2026-05-05 18:01 | 51.67070 | 8.36708 | 3847 ft | 158 kts | 244° |
| 2026-05-05 18:02 | 51.66571 | 8.35119 | 4100 ft | 158 kts | 244° |
| 2026-05-05 18:02 | 51.66075 | 8.33546 | 4344 ft | 157 kts | 244° |
| 2026-05-05 18:02 | 51.65583 | 8.31983 | 4596 ft | 156 kts | 243° |
| 2026-05-05 18:02 | 51.65095 | 8.30439 | 4844 ft | 156 kts | 243° |
| 2026-05-05 18:03 | 51.64607 | 8.28891 | 5093 ft | 155 kts | 243° |
| 2026-05-05 18:03 | 51.64119 | 8.27350 | 5344 ft | 154 kts | 243° |
| 2026-05-05 18:03 | 51.63633 | 8.25812 | 5589 ft | 154 kts | 243° |
| 2026-05-05 18:03 | 51.63148 | 8.24280 | 5837 ft | 153 kts | 243° |
| 2026-05-05 18:04 | 51.62667 | 8.22759 | 6085 ft | 152 kts | 243° |
| 2026-05-05 18:04 | 51.62165 | 8.21213 | 6146 ft | 163 kts | 243° |
| 2026-05-05 18:04 | 51.61612 | 8.19520 | 6004 ft | 177 kts | 243° |
| 2026-05-05 18:04 | 51.61026 | 8.17733 | 5866 ft | 183 kts | 243° |
| 2026-05-05 18:05 | 51.60430 | 8.15931 | 5724 ft | 186 kts | 241° |
| 2026-05-05 18:05 | 51.59701 | 8.14188 | 5579 ft | 188 kts | 234° |
| 2026-05-05 18:05 | 51.58917 | 8.12498 | 5417 ft | 189 kts | 233° |
| 2026-05-05 18:05 | 51.58128 | 8.10809 | 5284 ft | 189 kts | 233° |
| 2026-05-05 18:06 | 51.57335 | 8.09116 | 5135 ft | 189 kts | 233° |
| 2026-05-05 18:06 | 51.57074 | 8.08559 | 5086 ft | 189 kts | 233° |
| 2026-05-05 18:06 | 51.55757 | 8.05746 | 4838 ft | 190 kts | 233° |
| 2026-05-05 18:06 | 51.54960 | 8.04046 | 4688 ft | 190 kts | 233° |
| 2026-05-05 18:07 | 51.54162 | 8.02344 | 4537 ft | 190 kts | 233° |
| 2026-05-05 18:07 | 51.53366 | 8.00645 | 4388 ft | 190 kts | 233° |
| 2026-05-05 18:07 | 51.52568 | 7.98944 | 4237 ft | 190 kts | 233° |
| 2026-05-05 18:07 | 51.51771 | 7.97246 | 4088 ft | 190 kts | 233° |
| 2026-05-05 18:08 | 51.50974 | 7.95548 | 3938 ft | 191 kts | 233° |
| 2026-05-05 18:08 | 51.50171 | 7.93839 | 3787 ft | 191 kts | 233° |
| 2026-05-05 18:08 | 51.49643 | 7.92716 | 3689 ft | 191 kts | 233° |
| 2026-05-05 18:08 | 51.48842 | 7.91010 | 3538 ft | 191 kts | 233° |
| 2026-05-05 18:09 | 51.47787 | 7.88769 | 3407 ft | 188 kts | 233° |
| 2026-05-05 18:09 | 51.47085 | 7.87013 | 3331 ft | 187 kts | 248° |
| 2026-05-05 18:09 | 51.46801 | 7.85707 | 3283 ft | 187 kts | 253° |
| 2026-05-05 18:09 | 51.46420 | 7.83718 | 3209 ft | 186 kts | 253° |
| 2026-05-05 18:10 | 51.46046 | 7.81751 | 3131 ft | 180 kts | 253° |
| 2026-05-05 18:10 | 51.45724 | 7.79870 | 3051 ft | 171 kts | 262° |
| 2026-05-05 18:10 | 51.45949 | 7.78071 | 2971 ft | 166 kts | 300° |
| 2026-05-05 18:10 | 51.46575 | 7.76528 | 2893 ft | 164 kts | 303° |
| 2026-05-05 18:11 | 51.47188 | 7.74990 | 2817 ft | 163 kts | 298° |
| 2026-05-05 18:11 | 51.47658 | 7.73355 | 2781 ft | 160 kts | 293° |
| 2026-05-05 18:11 | 51.48054 | 7.71702 | 2746 ft | 158 kts | 289° |
| 2026-05-05 18:11 | 51.48473 | 7.70087 | 2713 ft | 157 kts | 305° |
| 2026-05-05 18:12 | 51.49370 | 7.69225 | 2756 ft | 152 kts | 349° |
| 2026-05-05 18:12 | 51.50451 | 7.69143 | 2591 ft | 162 kts | 356° |
| 2026-05-05 18:12 | 51.51511 | 7.68645 | 2457 ft | 158 kts | 321° |
| 2026-05-05 18:12 | 51.52170 | 7.67187 | 1923 ft | 169 kts | 294° |
| 2026-05-05 18:13 | 51.52222 | 7.65311 | 1452 ft | 169 kts | 254° |
| 2026-05-05 18:13 | 51.51669 | 7.63724 | 1248 ft | 159 kts | 236° |
| 2026-05-05 18:13 | 51.51055 | 7.62325 | 1111 ft | 149 kts | 237° |
| 2026-05-05 18:13 | 51.50535 | 7.61021 | 1072 ft | 130 kts | 238° |
| 2026-05-05 18:14 | 51.50089 | 7.59860 | 1052 ft | 115 kts | 243° |
| 2026-05-05 18:14 | 51.49993 | 7.58689 | 1047 ft | 99 kts | 286° |
| 2026-05-05 18:14 | 51.50460 | 7.58016 | 1011 ft | 93 kts | 355° |
| 2026-05-05 18:14 | 51.50954 | 7.58499 | 827 ft | 82 kts | 61° |
| 2026-05-05 18:15 | 51.51199 | 7.59376 | 566 ft | 85 kts | 59° |
| 2026-05-05 18:15 | 51.51453 | 7.60136 | 432 ft | 70 kts | 57° |
| 2026-05-05 18:15 | 51.51694 | 7.60806 | 417 ft | 90 kts | 60° |
| 2026-05-05 18:15 | 51.52079 | 7.61946 | 532 ft | 131 kts | 62° |
| 2026-05-05 18:16 | 51.52669 | 7.63025 | 753 ft | 131 kts | 23° |
| 2026-05-05 18:16 | 51.53527 | 7.62933 | 974 ft | 131 kts | 327° |
| 2026-05-05 18:16 | 51.53929 | 7.61685 | 1144 ft | 132 kts | 267° |
| 2026-05-05 18:16 | 51.53623 | 7.60265 | 1242 ft | 140 kts | 243° |
| 2026-05-05 18:17 | 51.53147 | 7.58880 | 1349 ft | 144 kts | 240° |
| 2026-05-05 18:17 | 51.52599 | 7.57533 | 1408 ft | 139 kts | 231° |
| 2026-05-05 18:17 | 51.51868 | 7.56841 | 1437 ft | 113 kts | 183° |
| 2026-05-05 18:17 | 51.51289 | 7.57489 | 1163 ft | 113 kts | 119° |
| 2026-05-05 18:18 | 51.51102 | 7.58675 | 834 ft | 108 kts | 90° |
| 2026-05-05 18:18 | 51.51319 | 7.59778 | 550 ft | 98 kts | 59° |
| 2026-05-05 18:18 | 51.51631 | 7.60634 | 419 ft | 79 kts | 59° |
| 2026-05-05 18:18 | 51.51908 | 7.61424 | 412 ft | 107 kts | 60° |
| 2026-05-05 18:19 | 51.52359 | 7.62653 | 573 ft | 142 kts | 51° |
| 2026-05-05 18:19 | 51.53227 | 7.62958 | 931 ft | 136 kts | 330° |
| 2026-05-05 18:19 | 51.53645 | 7.61690 | 1123 ft | 144 kts | 257° |
| 2026-05-05 18:19 | 51.53210 | 7.60197 | 1244 ft | 156 kts | 242° |
| 2026-05-05 18:20 | 51.52650 | 7.58639 | 1278 ft | 163 kts | 241° |
| 2026-05-05 18:20 | 51.52059 | 7.57075 | 1366 ft | 165 kts | 238° |
| 2026-05-05 18:20 | 51.51423 | 7.55655 | 1539 ft | 143 kts | 229° |
| 2026-05-05 18:20 | 51.50647 | 7.54768 | 1529 ft | 138 kts | 193° |
| 2026-05-05 18:21 | 51.49766 | 7.55141 | 1531 ft | 136 kts | 134° |
| 2026-05-05 18:21 | 51.49647 | 7.56520 | 1325 ft | 130 kts | 59° |
| 2026-05-05 18:21 | 51.50257 | 7.57534 | 982 ft | 120 kts | 40° |
| 2026-05-05 18:21 | 51.50799 | 7.58407 | 783 ft | 105 kts | 51° |
| 2026-05-05 18:22 | 51.51185 | 7.59352 | 588 ft | 98 kts | 60° |
| 2026-05-05 18:22 | 51.51506 | 7.60276 | 447 ft | 90 kts | 59° |
| 2026-05-05 18:22 | 51.51793 | 7.61070 | 414 ft | 77 kts | 64° |
| 2026-05-05 18:22 | 51.52160 | 7.62113 | 486 ft | 127 kts | 57° |
| 2026-05-05 18:23 | 51.52850 | 7.63040 | 727 ft | 136 kts | 21° |
| 2026-05-05 18:23 | 51.53817 | 7.63402 | 839 ft | 149 kts | 7° |
| 2026-05-05 18:23 | 51.54873 | 7.63420 | 984 ft | 155 kts | 351° |
| 2026-05-05 18:23 | 51.55913 | 7.62971 | 1136 ft | 156 kts | 341° |
| 2026-05-05 18:24 | 51.56932 | 7.62361 | 1280 ft | 156 kts | 337° |
| 2026-05-05 18:24 | 51.57952 | 7.61747 | 1415 ft | 157 kts | 343° |
| 2026-05-05 18:24 | 51.59011 | 7.61296 | 1537 ft | 158 kts | 345° |
| 2026-05-05 18:24 | 51.60043 | 7.60701 | 1660 ft | 157 kts | 327° |
| 2026-05-05 18:25 | 51.60681 | 7.59345 | 1814 ft | 154 kts | 287° |
| 2026-05-05 18:25 | 51.60707 | 7.58221 | 1887 ft | 156 kts | 257° |
| 2026-05-05 18:25 | 51.59802 | 7.56342 | 1834 ft | 163 kts | 219° |